createdAt,value
2017-05-29T00:00:49.093Z,20.1
2017-05-29T00:01:51.578Z,20.1
2017-05-29T00:02:54.042Z,19.9
2017-05-29T00:03:56.478Z,19.9
2017-05-29T00:04:58.957Z,19.7
2017-05-29T00:06:01.442Z,19.7
2017-05-29T00:07:04.039Z,19.8
2017-05-29T00:08:07.258Z,19.6
2017-05-29T00:09:09.796Z,19.5
2017-05-29T00:10:12.384Z,19.4
2017-05-29T00:11:15.251Z,19.7
2017-05-29T00:12:17.967Z,20
2017-05-29T00:13:20.530Z,20.1
2017-05-29T00:14:23.676Z,20.1
2017-05-29T00:15:26.198Z,20.3
2017-05-29T00:16:28.719Z,20.3
2017-05-29T00:17:31.186Z,20.3
2017-05-29T00:18:33.634Z,20.3
2017-05-29T00:19:36.111Z,20.2
2017-05-29T00:20:39.033Z,20.1
2017-05-29T00:21:41.475Z,20.1
2017-05-29T00:22:43.967Z,20.2
2017-05-29T00:23:46.426Z,20.2
2017-05-29T00:24:48.957Z,20.2
2017-05-29T00:25:51.512Z,20.2
2017-05-29T00:26:53.908Z,20.1
2017-05-29T00:27:57.038Z,20
2017-05-29T00:28:59.587Z,19.7
2017-05-29T00:30:02.694Z,19.5
2017-05-29T00:31:06.598Z,19.7
2017-05-29T00:32:09.207Z,19.8
2017-05-29T00:33:11.679Z,20
2017-05-29T00:34:15.214Z,19.8
2017-05-29T00:35:18.648Z,19.9
2017-05-29T00:36:21.207Z,20
2017-05-29T00:37:23.683Z,20.1
2017-05-29T00:38:26.385Z,20.1
2017-05-29T00:39:29.856Z,20
2017-05-29T00:40:32.419Z,20
2017-05-29T00:41:34.956Z,19.9
2017-05-29T00:42:37.407Z,19.9
2017-05-29T00:43:39.844Z,19.9
2017-05-29T00:44:42.461Z,20
2017-05-29T00:45:44.925Z,20.1
2017-05-29T00:46:47.477Z,20.1
2017-05-29T00:47:49.990Z,20
2017-05-29T00:48:53.021Z,20
2017-05-29T00:49:55.585Z,19.7
2017-05-29T00:50:58.025Z,19.7
2017-05-29T00:52:00.414Z,19.6
2017-05-29T00:53:03.869Z,19.8
2017-05-29T00:54:06.392Z,19.8
2017-05-29T00:55:08.922Z,19.8
2017-05-29T00:56:11.633Z,19.7
2017-05-29T00:57:14.132Z,19.7
2017-05-29T00:58:16.637Z,19.6
2017-05-29T00:59:19.293Z,19.6
2017-05-29T01:00:22.114Z,19.7
2017-05-29T01:01:24.576Z,19.7
2017-05-29T01:02:27.068Z,19.7
2017-05-29T01:03:29.627Z,19.8
2017-05-29T01:04:32.164Z,19.6
2017-05-29T01:05:34.666Z,19.5
2017-05-29T01:06:37.441Z,19.5
2017-05-29T01:07:39.939Z,19.6
2017-05-29T01:08:42.378Z,19.7
2017-05-29T01:09:44.783Z,19.7
2017-05-29T01:10:47.254Z,19.6
2017-05-29T01:11:49.735Z,19.5
2017-05-29T01:12:52.179Z,19.6
2017-05-29T01:13:54.629Z,19.5
2017-05-29T01:14:57.067Z,19.5
2017-05-29T01:15:59.575Z,19.4
2017-05-29T01:17:02.051Z,19
2017-05-29T01:18:05.747Z,19.1
2017-05-29T01:19:08.243Z,19.1
2017-05-29T01:20:10.737Z,18.9
2017-05-29T01:21:13.217Z,19
2017-05-29T01:22:15.724Z,19
2017-05-29T01:23:18.359Z,19
2017-05-29T01:24:21.882Z,19
2017-05-29T01:25:24.391Z,18.8
2017-05-29T01:26:27.062Z,18.8
2017-05-29T01:27:29.556Z,18.9
2017-05-29T01:28:31.984Z,19.1
2017-05-29T01:29:34.425Z,19.1
2017-05-29T01:30:36.881Z,19
2017-05-29T01:31:39.296Z,19.1
2017-05-29T01:32:41.782Z,19.1
2017-05-29T01:33:44.326Z,19.2
2017-05-29T01:34:47.039Z,19.1
2017-05-29T01:35:49.625Z,19.1
2017-05-29T01:36:52.054Z,19.2
2017-05-29T01:37:54.439Z,19.1
2017-05-29T01:38:57.081Z,19.1
2017-05-29T01:39:59.526Z,19.2
2017-05-29T01:41:01.988Z,19.1
2017-05-29T01:42:04.964Z,19.1
2017-05-29T01:43:07.371Z,19.2
2017-05-29T01:44:10.037Z,19.1
2017-05-29T01:45:12.709Z,19
2017-05-29T01:46:15.901Z,18.5
2017-05-29T01:47:18.546Z,18.8
2017-05-29T01:48:21.820Z,18.9
2017-05-29T01:49:24.724Z,18.8
2017-05-29T01:50:27.217Z,19
2017-05-29T01:51:30.050Z,19.2
2017-05-29T01:52:32.568Z,19.1
2017-05-29T01:53:34.984Z,19
2017-05-29T01:54:37.456Z,19
2017-05-29T01:55:39.941Z,19.1
2017-05-29T01:56:42.556Z,18.9
2017-05-29T01:57:45.066Z,18.9
2017-05-29T01:58:47.726Z,19.1
2017-05-29T01:59:50.234Z,19.1
2017-05-29T02:00:52.705Z,18.7
2017-05-29T02:01:55.185Z,18.8
2017-05-29T02:02:57.628Z,18.9
2017-05-29T02:04:00.117Z,19.1
2017-05-29T02:05:02.597Z,19.3
2017-05-29T02:06:06.964Z,19.4
2017-05-29T02:07:09.448Z,19.2
2017-05-29T02:08:11.996Z,19.3
2017-05-29T02:09:14.538Z,19.3
2017-05-29T02:10:17.030Z,19.3
2017-05-29T02:11:19.495Z,19.2
2017-05-29T02:12:22.008Z,19.1
2017-05-29T02:13:24.907Z,19
2017-05-29T02:14:27.347Z,19
2017-05-29T02:15:30.448Z,18.9
2017-05-29T02:16:32.941Z,19.1
2017-05-29T02:17:35.421Z,19.1
2017-05-29T02:18:37.837Z,19.1
2017-05-29T02:19:40.240Z,19
2017-05-29T02:20:42.730Z,19
2017-05-29T02:21:45.270Z,19
2017-05-29T02:22:47.752Z,19.1
2017-05-29T02:23:50.221Z,19.1
2017-05-29T02:24:52.675Z,19.2
2017-05-29T02:25:55.341Z,19
2017-05-29T02:26:57.809Z,19.1
2017-05-29T02:28:00.959Z,19
2017-05-29T02:29:04.529Z,19.1
2017-05-29T02:30:07.057Z,19.1
2017-05-29T02:31:09.661Z,19.3
2017-05-29T02:32:12.121Z,19.4
2017-05-29T02:33:14.573Z,19.3
2017-05-29T02:34:17.583Z,19.3
2017-05-29T02:35:20.137Z,19.1
2017-05-29T02:36:22.651Z,19.1
2017-05-29T02:37:25.142Z,19
2017-05-29T02:38:27.690Z,19.2
2017-05-29T02:39:30.222Z,19.1
2017-05-29T02:40:32.733Z,19.1
2017-05-29T02:41:35.258Z,19.1
2017-05-29T02:42:37.792Z,19.3
2017-05-29T02:43:40.241Z,19.4
2017-05-29T02:44:42.769Z,19.4
2017-05-29T02:45:45.211Z,19.4
2017-05-29T02:46:47.718Z,19.3
2017-05-29T02:47:50.196Z,19.2
2017-05-29T02:48:52.680Z,19.1
2017-05-29T02:49:55.090Z,19.1
2017-05-29T02:50:57.535Z,19.1
2017-05-29T02:52:00.076Z,19.1
2017-05-29T02:53:02.536Z,19.2
2017-05-29T02:54:05.134Z,19.2
2017-05-29T02:55:07.842Z,19.3
2017-05-29T02:56:10.553Z,19.3
2017-05-29T02:57:12.955Z,19.2
2017-05-29T02:58:15.462Z,19.2
2017-05-29T02:59:18.003Z,19.2
2017-05-29T03:00:20.571Z,19.2
2017-05-29T03:01:23.081Z,19.2
2017-05-29T03:02:25.552Z,19.1
2017-05-29T03:03:28.065Z,19.2
2017-05-29T03:04:30.667Z,19.3
2017-05-29T03:05:34.021Z,19.3
2017-05-29T03:06:37.956Z,19.3
2017-05-29T03:07:40.401Z,19.3
2017-05-29T03:08:42.859Z,19.4
2017-05-29T03:09:45.373Z,19.5
2017-05-29T03:10:47.906Z,19.4
2017-05-29T03:11:50.496Z,19.1
2017-05-29T03:12:53.041Z,19.1
2017-05-29T03:13:55.601Z,19.1
2017-05-29T03:14:58.095Z,19
2017-05-29T03:16:00.705Z,19.1
2017-05-29T03:17:03.236Z,19
2017-05-29T03:18:05.772Z,18.9
2017-05-29T03:19:08.257Z,18.8
2017-05-29T03:20:10.932Z,19
2017-05-29T03:21:13.370Z,19
2017-05-29T03:22:15.822Z,19
2017-05-29T03:23:18.339Z,18.9
2017-05-29T03:24:20.889Z,18.9
2017-05-29T03:25:23.374Z,18.8
2017-05-29T03:26:25.825Z,18.8
2017-05-29T03:27:28.328Z,18.9
2017-05-29T03:28:30.757Z,18.9
2017-05-29T03:29:33.217Z,18.9
2017-05-29T03:30:35.735Z,18.9
2017-05-29T03:31:38.218Z,19
2017-05-29T03:32:40.777Z,19.1
2017-05-29T03:34:55.695Z,19.3
2017-05-29T03:35:58.154Z,19.3
2017-05-29T03:37:00.594Z,19.3
2017-05-29T03:38:04.406Z,19.4
2017-05-29T03:39:06.823Z,19.4
2017-05-29T03:40:09.299Z,19.4
2017-05-29T03:41:12.508Z,19.6
2017-05-29T03:42:14.986Z,19.6
2017-05-29T03:43:17.519Z,19.6
2017-05-29T03:44:19.997Z,19.5
2017-05-29T03:45:22.479Z,19.6
2017-05-29T03:46:24.970Z,19.5
2017-05-29T03:47:27.495Z,19.4
2017-05-29T03:48:29.918Z,19.5
2017-05-29T03:49:32.376Z,19.5
2017-05-29T03:50:34.830Z,19.4
2017-05-29T03:51:37.412Z,19.4
2017-05-29T03:52:39.851Z,19.4
2017-05-29T03:53:42.313Z,19.4
2017-05-29T03:54:44.754Z,19.4
2017-05-29T03:55:47.202Z,19.5
2017-05-29T03:56:49.717Z,19.4
2017-05-29T03:57:52.151Z,19.5
2017-05-29T03:58:54.649Z,19.4
2017-05-29T03:59:57.097Z,19.5
2017-05-29T04:00:59.610Z,19.4
2017-05-29T04:02:02.165Z,19.4
2017-05-29T04:03:04.737Z,19.4
2017-05-29T04:04:07.195Z,19.6
2017-05-29T04:05:09.675Z,19.6
2017-05-29T04:06:12.223Z,19.6
2017-05-29T04:07:14.728Z,19.5
2017-05-29T04:08:17.234Z,19.3
2017-05-29T04:09:19.680Z,19.3
2017-05-29T04:10:22.237Z,19.3
2017-05-29T04:11:24.753Z,19.4
2017-05-29T04:12:27.288Z,19.3
2017-05-29T04:13:29.711Z,19.3
2017-05-29T04:14:32.229Z,19.4
2017-05-29T04:15:34.810Z,19.4
2017-05-29T04:16:37.314Z,19.4
2017-05-29T04:17:39.729Z,19.5
2017-05-29T04:18:42.195Z,19.5
2017-05-29T04:19:44.615Z,19.4
2017-05-29T04:20:47.788Z,19.4
2017-05-29T04:21:50.220Z,19.4
2017-05-29T04:22:52.727Z,19.4
2017-05-29T04:23:55.235Z,19.6
2017-05-29T04:24:57.692Z,19.6
2017-05-29T04:26:01.187Z,19.7
2017-05-29T04:27:03.720Z,19.6
2017-05-29T04:28:06.276Z,19.6
2017-05-29T04:29:08.770Z,19.7
2017-05-29T04:30:11.615Z,19.8
2017-05-29T04:31:14.802Z,19.6
2017-05-29T04:32:17.268Z,19.5
2017-05-29T04:33:19.870Z,19.5
2017-05-29T04:34:22.500Z,19.4
2017-05-29T04:35:24.990Z,19.5
2017-05-29T04:36:27.517Z,19.5
2017-05-29T04:37:30.079Z,19.6
2017-05-29T04:38:32.625Z,19.5
2017-05-29T04:39:35.090Z,19.7
2017-05-29T04:40:37.598Z,19.9
2017-05-29T04:41:40.054Z,19.8
2017-05-29T04:42:42.544Z,19.8
2017-05-29T04:43:45.024Z,19.9
2017-05-29T04:44:47.509Z,19.9
2017-05-29T04:45:49.962Z,19.9
2017-05-29T04:46:52.448Z,20
2017-05-29T04:47:54.950Z,20
2017-05-29T04:48:57.398Z,19.8
2017-05-29T04:49:59.891Z,19.7
2017-05-29T04:51:02.538Z,19.7
2017-05-29T04:52:05.676Z,19.9
2017-05-29T04:53:08.272Z,19.9
2017-05-29T04:54:10.696Z,20
2017-05-29T04:55:13.194Z,20
2017-05-29T04:56:16.295Z,20
2017-05-29T04:57:18.858Z,20.1
2017-05-29T04:58:21.403Z,20.1
2017-05-29T04:59:24.568Z,20.1
2017-05-29T05:00:29.279Z,20.2
2017-05-29T05:01:32.046Z,20.2
2017-05-29T05:02:34.688Z,20.2
2017-05-29T05:03:37.167Z,20.1
2017-05-29T05:04:40.546Z,20.2
2017-05-29T05:05:43.092Z,20.3
2017-05-29T05:06:45.628Z,20.3
2017-05-29T05:07:48.136Z,20.1
2017-05-29T05:08:50.605Z,20.3
2017-05-29T05:09:53.207Z,20.2
2017-05-29T05:10:55.699Z,20.2
2017-05-29T05:11:58.104Z,20.3
2017-05-29T05:13:01.329Z,20.3
2017-05-29T05:14:03.930Z,20.2
2017-05-29T05:15:07.758Z,20.4
2017-05-29T05:16:11.469Z,20.4
2017-05-29T05:17:14.029Z,20.5
2017-05-29T05:18:20.478Z,20.5
2017-05-29T05:19:23.105Z,20.6
2017-05-29T05:20:25.743Z,20.7
2017-05-29T05:21:28.332Z,20.6
2017-05-29T05:22:30.841Z,20.7
2017-05-29T05:23:33.322Z,20.5
2017-05-29T05:24:35.775Z,20.8
2017-05-29T05:25:38.367Z,20.7
2017-05-29T05:26:41.186Z,20.6
2017-05-29T05:27:44.530Z,20.7
2017-05-29T05:28:47.967Z,20.6
2017-05-29T05:29:50.945Z,20.7
2017-05-29T05:30:53.510Z,20.9
2017-05-29T05:31:56.010Z,21
2017-05-29T05:32:58.544Z,21.1
2017-05-29T05:34:01.067Z,21.2
2017-05-29T05:35:07.391Z,21.1
2017-05-29T05:36:10.573Z,21.2
2017-05-29T05:37:13.884Z,21.1
2017-05-29T05:38:18.820Z,21.1
2017-05-29T05:39:22.181Z,20.9
2017-05-29T05:40:27.514Z,21
2017-05-29T05:41:31.635Z,21.2
2017-05-29T05:42:34.909Z,21.3
2017-05-29T05:43:38.104Z,21.3
2017-05-29T05:44:40.583Z,21.4
2017-05-29T05:45:43.901Z,21.5
2017-05-29T05:46:46.549Z,21.5
2017-05-29T05:47:49.110Z,21.6
2017-05-29T05:48:51.660Z,21.7
2017-05-29T05:49:54.361Z,21.8
2017-05-29T05:50:56.956Z,21.8
2017-05-29T05:51:59.461Z,21.9
2017-05-29T05:53:02.009Z,21.8
2017-05-29T05:54:05.304Z,21.9
2017-05-29T05:55:10.215Z,22
2017-05-29T05:56:14.479Z,22
2017-05-29T05:57:17.093Z,21.9
2017-05-29T05:58:21.445Z,22
2017-05-29T05:59:24.082Z,22
2017-05-29T06:00:27.039Z,22.3
2017-05-29T06:01:29.663Z,22
2017-05-29T06:02:33.887Z,22
2017-05-29T06:03:38.554Z,22.2
2017-05-29T06:04:41.300Z,22.5
2017-05-29T06:05:43.994Z,22.5
2017-05-29T06:06:47.530Z,22.8
2017-05-29T06:07:50.038Z,22.7
2017-05-29T06:08:52.774Z,22.6
2017-05-29T06:09:55.435Z,22.8
2017-05-29T06:10:58.112Z,23
2017-05-29T06:12:00.614Z,22.9
2017-05-29T06:13:03.318Z,22.7
2017-05-29T06:14:06.909Z,23
2017-05-29T06:15:11.564Z,22.9
2017-05-29T06:16:14.246Z,23
2017-05-29T06:17:16.945Z,23.1
2017-05-29T06:18:19.821Z,23.2
2017-05-29T06:19:22.510Z,23.3
2017-05-29T06:20:25.203Z,22.6
2017-05-29T06:21:28.100Z,22.6
2017-05-29T06:22:32.580Z,22.9
2017-05-29T06:23:35.220Z,22.9
2017-05-29T06:24:38.395Z,23.1
2017-05-29T06:25:41.015Z,23
2017-05-29T06:26:43.780Z,23.1
2017-05-29T06:27:48.576Z,23.3
2017-05-29T06:28:51.098Z,23.4
2017-05-29T06:29:53.647Z,23.8
2017-05-29T06:30:56.802Z,23.8
2017-05-29T06:32:00.002Z,23.8
2017-05-29T06:33:02.585Z,23.9
2017-05-29T06:34:09.409Z,23.9
2017-05-29T06:35:12.236Z,24.4
2017-05-29T06:36:16.547Z,24.6
2017-05-29T06:37:19.303Z,24.5
2017-05-29T06:38:21.900Z,24.7
2017-05-29T06:39:26.035Z,24.9
2017-05-29T06:40:30.775Z,25.1
2017-05-29T06:41:33.453Z,25
2017-05-29T06:42:36.791Z,25.1
2017-05-29T06:43:39.313Z,24.9
2017-05-29T06:44:41.930Z,24.6
2017-05-29T06:45:44.503Z,24.6
2017-05-29T06:46:47.577Z,24.5
2017-05-29T06:47:50.095Z,24.6
2017-05-29T06:48:52.668Z,24.5
2017-05-29T06:49:55.271Z,24.5
2017-05-29T06:50:57.833Z,24.4
2017-05-29T06:52:01.122Z,24.7
2017-05-29T06:53:08.498Z,24.8
2017-05-29T06:54:12.446Z,25.4
2017-05-29T06:55:17.851Z,26
2017-05-29T06:56:22.352Z,26.5
2017-05-29T06:57:25.090Z,27
2017-05-29T06:58:30.092Z,27.5
2017-05-29T06:59:33.517Z,27.6
2017-05-29T07:00:39.192Z,27.7
2017-05-29T07:01:44.409Z,27.2
2017-05-29T07:02:46.997Z,27.3
2017-05-29T07:03:50.954Z,27.9
2017-05-29T07:04:54.354Z,28.5
2017-05-29T07:05:59.886Z,27.8
2017-05-29T07:07:05.204Z,27.9
2017-05-29T07:08:10.181Z,27.7
2017-05-29T07:09:13.273Z,27.6
2017-05-29T07:11:26.278Z,27.5
2017-05-29T07:13:47.184Z,27.6
2017-05-29T07:14:52.725Z,27.9
2017-05-29T07:15:59.140Z,28
2017-05-29T07:17:06.444Z,28.1
2017-05-29T07:18:10.642Z,27.5
2017-05-29T07:19:14.010Z,27.5
2017-05-29T07:20:18.569Z,27.5
2017-05-29T07:21:27.045Z,27
2017-05-29T07:22:33.764Z,27
2017-05-29T07:23:37.974Z,27.5
2017-05-29T07:24:43.178Z,27.2
2017-05-29T07:25:52.481Z,27.1
2017-05-29T07:26:55.425Z,26.9
2017-05-29T07:28:00.448Z,26.7
2017-05-29T07:29:07.934Z,26.6
2017-05-29T07:30:14.214Z,26.8
2017-05-29T07:31:19.113Z,26.1
2017-05-29T07:32:22.388Z,26.6
2017-05-29T07:33:25.763Z,26.8
2017-05-29T07:34:30.090Z,27
2017-05-29T07:35:33.721Z,26.9
2017-05-29T07:36:38.779Z,26.6
2017-05-29T07:37:45.072Z,26.5
2017-05-29T07:38:49.243Z,27
2017-05-29T07:39:53.362Z,26.9
2017-05-29T07:40:56.861Z,27.1
2017-05-29T07:41:59.948Z,26.7
2017-05-29T07:43:03.340Z,26.4
2017-05-29T07:44:09.422Z,26.1
2017-05-29T07:45:14.840Z,26.2
2017-05-29T07:46:19.816Z,26.3
2017-05-29T07:47:22.703Z,26.4
2017-05-29T07:48:25.943Z,26.3
2017-05-29T07:49:29.187Z,26.6
2017-05-29T07:50:36.514Z,26.4
2017-05-29T07:51:39.418Z,26.6
2017-05-29T07:52:43.056Z,26.1
2017-05-29T07:53:45.762Z,25.9
2017-05-29T07:54:48.445Z,26.1
2017-05-29T07:57:09.733Z,27
2017-05-29T07:58:12.999Z,27.1
2017-05-29T07:59:16.333Z,27.1
2017-05-29T08:00:20.420Z,26.9
2017-05-29T08:01:27.730Z,26.7
2017-05-29T08:02:31.671Z,26.3
2017-05-29T08:03:35.072Z,26.3
2017-05-29T08:04:38.908Z,26.5
2017-05-29T08:05:44.967Z,26
2017-05-29T08:06:48.534Z,26.5
2017-05-29T08:07:51.265Z,26.4
2017-05-29T08:08:54.446Z,27
2017-05-29T08:09:57.056Z,27.5
2017-05-29T08:11:00.983Z,27.7
2017-05-29T08:12:06.772Z,27.1
2017-05-29T08:13:09.375Z,27.1
2017-05-29T08:14:13.914Z,27.6
2017-05-29T08:15:17.950Z,28.1
2017-05-29T08:16:23.239Z,28.3
2017-05-29T08:17:26.468Z,28.8
2017-05-29T08:18:29.231Z,28.7
2017-05-29T08:19:31.882Z,28.4
2017-05-29T08:20:35.241Z,28.3
2017-05-29T08:21:38.721Z,28.4
2017-05-29T08:22:42.305Z,28.4
2017-05-29T08:23:45.914Z,28.1
2017-05-29T08:24:49.238Z,28.1
2017-05-29T08:25:53.582Z,28.2
2017-05-29T08:27:00.525Z,28.9
2017-05-29T08:29:11.946Z,29.1
2017-05-29T08:30:17.729Z,29.5
2017-05-29T08:31:20.963Z,28.3
2017-05-29T08:32:23.603Z,27.9
2017-05-29T08:33:26.281Z,28.5
2017-05-29T08:34:29.910Z,29.7
2017-05-29T08:35:32.578Z,29.6
2017-05-29T08:36:36.394Z,30.6
2017-05-29T08:37:41.149Z,31.1
2017-05-29T08:38:51.285Z,30.8
2017-05-29T08:39:54.006Z,29.8
2017-05-29T08:40:56.607Z,29.7
2017-05-29T08:41:59.277Z,29.2
2017-05-29T08:43:02.008Z,29.6
2017-05-29T08:44:07.584Z,29.5
2017-05-29T08:45:13.957Z,29.1
2017-05-29T08:46:18.659Z,29.1
2017-05-29T08:47:23.071Z,30.6
2017-05-29T08:48:25.998Z,31.3
2017-05-29T08:49:28.693Z,31
2017-05-29T08:50:33.121Z,31.3
2017-05-29T08:51:36.126Z,31.1
2017-05-29T08:52:39.569Z,30.4
2017-05-29T08:53:44.457Z,29.9
2017-05-29T08:54:47.338Z,30
2017-05-29T08:55:51.023Z,30.2
2017-05-29T08:56:53.732Z,30.6
2017-05-29T08:57:57.352Z,30.8
2017-05-29T08:58:59.941Z,30.8
2017-05-29T09:01:18.659Z,30.6
2017-05-29T09:02:23.717Z,31.8
2017-05-29T09:03:29.534Z,30.9
2017-05-29T09:04:32.349Z,30.2
2017-05-29T09:05:40.159Z,30.3
2017-05-29T09:06:48.030Z,30.4
2017-05-29T09:07:53.144Z,32.1
2017-05-29T09:08:56.371Z,34.6
2017-05-29T09:09:59.572Z,36
2017-05-29T09:11:05.204Z,36.7
2017-05-29T09:12:11.121Z,37.3
2017-05-29T09:13:16.094Z,37.9
2017-05-29T09:14:18.923Z,37.7
2017-05-29T09:15:21.793Z,37.3
2017-05-29T09:16:25.815Z,37.6
2017-05-29T09:17:30.364Z,36.9
2017-05-29T09:18:35.346Z,36.3
2017-05-29T09:19:41.334Z,37.2
2017-05-29T09:20:45.873Z,37.3
2017-05-29T09:21:50.163Z,36.3
2017-05-29T09:22:52.758Z,36.7
2017-05-29T09:23:55.451Z,37.4
2017-05-29T09:24:58.690Z,38
2017-05-29T09:26:01.264Z,38
2017-05-29T09:27:07.633Z,37.8
2017-05-29T09:28:13.699Z,39.2
2017-05-29T09:29:16.396Z,38.8
2017-05-29T09:30:20.443Z,38.6
2017-05-29T09:31:24.992Z,38.3
2017-05-29T09:32:28.971Z,37.1
2017-05-29T09:33:32.229Z,37.8
2017-05-29T09:34:35.697Z,37.7
2017-05-29T09:35:38.998Z,36.6
2017-05-29T09:36:42.962Z,35.6
2017-05-29T09:37:45.814Z,35.4
2017-05-29T09:38:48.584Z,35.8
2017-05-29T09:39:53.021Z,35.6
2017-05-29T09:40:56.470Z,35.1
2017-05-29T09:42:01.473Z,35.9
2017-05-29T09:43:08.279Z,37
2017-05-29T09:44:11.050Z,38
2017-05-29T09:46:29.383Z,37.2
2017-05-29T09:47:35.345Z,36.6
2017-05-29T09:48:39.830Z,37.1
2017-05-29T09:49:49.846Z,37.7
2017-05-29T09:51:09.692Z,38.6
2017-05-29T09:52:16.775Z,37.9
2017-05-29T09:53:22.339Z,36.4
2017-05-29T09:54:26.881Z,36.7
2017-05-29T09:55:30.923Z,37.4
2017-05-29T09:56:35.622Z,38.3
2017-05-29T09:57:40.594Z,38.1
2017-05-29T09:58:43.788Z,38
2017-05-29T09:59:46.684Z,37.2
2017-05-29T10:00:50.532Z,36.5
2017-05-29T10:01:58.805Z,37.1
2017-05-29T10:03:02.557Z,37.5
2017-05-29T10:04:10.345Z,37.6
2017-05-29T10:05:16.531Z,37.6
2017-05-29T10:06:21.577Z,37.7
2017-05-29T10:07:26.437Z,37.8
2017-05-29T10:08:31.289Z,36.6
2017-05-29T10:09:35.398Z,37.1
2017-05-29T10:10:39.064Z,36.6
2017-05-29T10:11:45.841Z,36.5
2017-05-29T10:12:48.907Z,36
2017-05-29T10:13:52.167Z,36
2017-05-29T10:14:55.419Z,36.3
2017-05-29T10:15:59.893Z,36.4
2017-05-29T10:17:04.638Z,36.3
2017-05-29T10:18:10.101Z,35.6
2017-05-29T10:19:15.425Z,35.9
2017-05-29T10:20:22.240Z,35.5
2017-05-29T10:21:35.976Z,34.8
2017-05-29T10:22:38.906Z,34.8
2017-05-29T10:23:46.967Z,35
2017-05-29T10:24:51.237Z,35.5
2017-05-29T10:25:55.817Z,35.5
2017-05-29T10:26:59.708Z,35
2017-05-29T10:28:09.245Z,34.7
2017-05-29T10:29:18.873Z,35.1
2017-05-29T10:30:25.364Z,34.7
2017-05-29T10:32:40.468Z,34.9
2017-05-29T10:33:45.031Z,34.8
2017-05-29T10:34:49.594Z,34.7
2017-05-29T10:35:54.029Z,34.1
2017-05-29T10:36:58.322Z,33.4
2017-05-29T10:38:02.145Z,33.5
2017-05-29T10:39:12.917Z,33.9
2017-05-29T10:40:19.437Z,34.2
2017-05-29T10:41:25.601Z,34.1
2017-05-29T10:42:30.429Z,34.5
2017-05-29T10:43:36.882Z,34.4
2017-05-29T10:44:41.578Z,33.8
2017-05-29T10:45:44.902Z,33.3
2017-05-29T10:46:51.380Z,33.4
2017-05-29T10:47:54.144Z,34.2
2017-05-29T10:48:57.362Z,34.5
2017-05-29T10:50:00.003Z,34.5
2017-05-29T10:51:06.045Z,34.4
2017-05-29T10:52:12.294Z,33.9
2017-05-29T10:53:16.119Z,34.2
2017-05-29T10:54:20.955Z,34.4
2017-05-29T10:55:30.293Z,34.3
2017-05-29T10:56:38.988Z,34.5
2017-05-29T10:57:43.758Z,34.8
2017-05-29T10:58:51.105Z,34.8
2017-05-29T10:59:53.705Z,34.4
2017-05-29T11:00:58.378Z,34.1
2017-05-29T11:02:06.231Z,34.4
2017-05-29T11:03:15.016Z,34.7
2017-05-29T11:04:19.751Z,34.8
2017-05-29T11:05:26.829Z,35
2017-05-29T11:06:33.302Z,34.6
2017-05-29T11:07:37.288Z,34.9
2017-05-29T11:08:42.641Z,34.9
2017-05-29T11:09:46.907Z,34.9
2017-05-29T11:10:53.361Z,34.2
2017-05-29T11:12:08.822Z,34
2017-05-29T11:13:16.099Z,34.3
2017-05-29T11:14:24.838Z,34.4
2017-05-29T11:15:33.248Z,33.2
2017-05-29T11:18:16.314Z,32.8
2017-05-29T11:20:40.565Z,32.3
2017-05-29T11:21:57.898Z,32.6
2017-05-29T11:23:08.943Z,33.9
2017-05-29T11:24:15.378Z,34.2
2017-05-29T11:25:25.553Z,33.7
2017-05-29T11:26:38.388Z,34
2017-05-29T11:27:43.621Z,34.1
2017-05-29T11:28:48.811Z,34
2017-05-29T11:29:53.328Z,33.3
2017-05-29T11:30:59.751Z,32.7
2017-05-29T11:32:09.521Z,31.9
2017-05-29T11:33:14.272Z,32
2017-05-29T11:34:17.149Z,31.9
2017-05-29T11:35:21.526Z,32
2017-05-29T11:36:25.424Z,31.9
2017-05-29T11:37:28.298Z,31.9
2017-05-29T11:38:31.745Z,32.3
2017-05-29T11:39:35.183Z,32.8
2017-05-29T11:40:39.365Z,32.5
2017-05-29T11:41:45.832Z,32.7
2017-05-29T11:42:55.426Z,33.2
2017-05-29T11:45:23.376Z,34.3
2017-05-29T11:46:30.104Z,33.1
2017-05-29T11:47:39.296Z,32.9
2017-05-29T11:48:52.250Z,33.9
2017-05-29T11:49:59.271Z,34
2017-05-29T11:51:02.109Z,34
2017-05-29T11:52:14.397Z,33.7
2017-05-29T11:53:25.334Z,33.7
2017-05-29T11:54:30.587Z,33.5
2017-05-29T11:55:39.829Z,33.2
2017-05-29T11:56:48.579Z,33.8
2017-05-29T11:59:12.031Z,33.8
2017-05-29T12:01:32.113Z,34.4
2017-05-29T12:02:40.035Z,34.4
2017-05-29T12:03:46.714Z,32.4
2017-05-29T12:04:50.164Z,32.1
2017-05-29T12:05:54.060Z,32.5
2017-05-29T12:06:58.534Z,32.9
2017-05-29T12:08:02.444Z,32.4
2017-05-29T12:09:11.381Z,32.9
2017-05-29T12:10:18.959Z,33.7
2017-05-29T12:11:25.134Z,33.4
2017-05-29T12:12:28.789Z,33.2
2017-05-29T12:13:32.282Z,32.7
2017-05-29T12:14:36.538Z,32.7
2017-05-29T12:15:42.007Z,33.5
2017-05-29T12:16:46.751Z,34.2
2017-05-29T12:17:54.769Z,34.3
2017-05-29T12:18:57.471Z,34.5
2017-05-29T12:20:00.217Z,34.1
2017-05-29T12:21:08.136Z,33.5
2017-05-29T12:22:11.483Z,33.6
2017-05-29T12:23:14.067Z,34.1
2017-05-29T12:24:17.336Z,34.4
2017-05-29T12:25:20.783Z,34.3
2017-05-29T12:26:23.440Z,34.5
2017-05-29T12:27:26.805Z,34.6
2017-05-29T12:28:30.915Z,34.6
2017-05-29T12:29:34.707Z,34.6
2017-05-29T12:30:42.034Z,33.9
2017-05-29T12:31:48.049Z,33
2017-05-29T12:32:52.751Z,32.6
2017-05-29T12:33:59.870Z,32.4
2017-05-29T12:36:20.113Z,32.9
2017-05-29T12:37:25.932Z,33.4
2017-05-29T12:38:32.747Z,33.7
2017-05-29T12:39:40.281Z,34
2017-05-29T12:40:44.425Z,34.1
2017-05-29T12:41:51.822Z,33.7
2017-05-29T12:42:57.369Z,33
2017-05-29T12:44:00.153Z,32.5
2017-05-29T12:46:24.358Z,33.5
2017-05-29T12:47:34.670Z,34
2017-05-29T12:51:25.197Z,34.5
2017-05-29T12:54:22.484Z,33.2
2017-05-29T12:58:29.528Z,33.7
2017-05-29T13:02:15.606Z,34.1
2017-05-29T13:03:20.533Z,34
2017-05-29T13:04:30.167Z,32.8
2017-05-29T13:06:42.035Z,32.7
2017-05-29T13:07:45.576Z,33.2
2017-05-29T13:08:54.092Z,33.7
2017-05-29T13:09:56.864Z,33.7
2017-05-29T13:11:02.167Z,33.2
2017-05-29T13:12:07.948Z,33.1
2017-05-29T13:13:12.049Z,33.5
2017-05-29T13:14:14.942Z,33.8
2017-05-29T13:15:17.714Z,33.6
2017-05-29T13:16:25.185Z,33.7
2017-05-29T13:17:29.196Z,33.6
2017-05-29T13:18:32.131Z,33.8
2017-05-29T13:19:36.967Z,33.8
2017-05-29T13:20:42.747Z,33.9
2017-05-29T13:21:47.772Z,33.7
2017-05-29T13:22:51.638Z,33.6
2017-05-29T13:23:54.317Z,33.8
2017-05-29T13:24:56.862Z,33.5
2017-05-29T13:26:02.066Z,33.5
2017-05-29T13:27:14.388Z,33.5
2017-05-29T13:28:17.182Z,33.6
2017-05-29T13:29:19.984Z,33.7
2017-05-29T13:30:23.569Z,33.6
2017-05-29T13:31:28.251Z,33.6
2017-05-29T13:32:31.218Z,33.5
2017-05-29T13:33:34.017Z,33.7
2017-05-29T13:34:36.729Z,33.8
2017-05-29T13:35:39.665Z,33.7
2017-05-29T13:36:44.011Z,33.9
2017-05-29T13:37:47.481Z,33.8
2017-05-29T13:38:51.691Z,33.4
2017-05-29T13:39:55.374Z,33.3
2017-05-29T13:40:58.294Z,33.3
2017-05-29T13:42:05.421Z,33.2
2017-05-29T13:43:14.039Z,32.8
2017-05-29T13:44:26.117Z,33
2017-05-29T13:46:41.900Z,33.2
2017-05-29T13:47:45.406Z,33.1
2017-05-29T13:48:50.248Z,33
2017-05-29T13:49:54.711Z,33.1
2017-05-29T13:50:58.036Z,33
2017-05-29T13:52:02.122Z,33.1
2017-05-29T13:53:10.131Z,33
2017-05-29T13:54:15.799Z,33.2
2017-05-29T13:55:22.064Z,33.2
2017-05-29T13:56:24.884Z,32.8
2017-05-29T13:57:28.249Z,33
2017-05-29T13:58:31.822Z,33.3
2017-05-29T13:59:35.244Z,32.9
2017-05-29T14:00:39.007Z,32.9
2017-05-29T14:01:43.417Z,33
2017-05-29T14:02:46.118Z,32.8
2017-05-29T14:03:49.070Z,32.7
2017-05-29T14:04:53.457Z,33
2017-05-29T14:05:57.285Z,33
2017-05-29T14:07:03.591Z,32.8
2017-05-29T14:08:10.706Z,32.6
2017-05-29T14:09:14.445Z,32.8
2017-05-29T14:11:34.050Z,32.7
2017-05-29T14:12:38.159Z,32.5
2017-05-29T14:13:42.236Z,32.5
2017-05-29T14:14:46.800Z,32.6
2017-05-29T14:15:50.087Z,32.7
2017-05-29T14:16:54.680Z,32.8
2017-05-29T14:17:58.173Z,32.4
2017-05-29T14:19:01.843Z,32.5
2017-05-29T14:20:13.611Z,32.8
2017-05-29T14:21:22.391Z,32.8
2017-05-29T14:22:28.180Z,32.8
2017-05-29T14:23:31.078Z,32.9
2017-05-29T14:24:36.147Z,32.8
2017-05-29T14:25:41.838Z,32.5
2017-05-29T14:26:44.644Z,32.4
2017-05-29T14:27:48.315Z,32.3
2017-05-29T14:28:54.438Z,32.5
2017-05-29T14:29:59.660Z,32.6
2017-05-29T14:31:10.670Z,32.5
2017-05-29T14:32:16.963Z,32.7
2017-05-29T14:33:25.564Z,32.6
2017-05-29T14:34:32.006Z,32.3
2017-05-29T14:35:39.479Z,32.1
2017-05-29T14:36:43.221Z,32.3
2017-05-29T14:37:47.139Z,32.5
2017-05-29T14:38:51.279Z,32.3
2017-05-29T14:39:54.804Z,32.2
2017-05-29T14:41:00.626Z,32.3
2017-05-29T14:42:06.827Z,32.6
2017-05-29T14:43:11.404Z,32.6
2017-05-29T14:45:43.008Z,32.3
2017-05-29T14:46:50.668Z,32.2
2017-05-29T14:47:53.602Z,32.2
2017-05-29T14:48:56.273Z,32.3
2017-05-29T14:49:58.924Z,32.4
2017-05-29T14:51:01.552Z,32.4
2017-05-29T14:52:07.058Z,32.4